KAUS/AUS METAR and TAF weather

Enter ICAO airport designator
Station Type Date Time Source
KAUS METAR 2019/04/18 20:53 UTC NOAA

KAUS 182053Z 35018G28KT 10SM SCT049 SCT060 24/12 A2982 RMK AO2 PK WND 33032/1959 SLP090 60000 T02440122 50006 $


Station Type Date Time Source
KAUS Decoded METAR 2019/04/18 20:53 UTC NOAA

AUSTIN-BERGSTROM INTERNATIONAL AIRPORT, TX, United States (KAUS) 30-11N 097-41W 172M
Apr 18, 2019 - 04:53 PM EDT / 2019.04.18 2053 UTC
Wind: from the N (350 degrees) at 21 MPH (18 KT) gusting to 32 MPH (28 KT):0
Visibility: 10 mile(s):0
Sky conditions: partly cloudy
Temperature: 75.9 F (24.4 C)
Dew Point: 54.0 F (12.2 C)
Relative Humidity: 46%
Pressure (altimeter): 29.82 in. Hg (1009 hPa)
Pressure tendency: 0.02 inches (0.6 hPa) higher than three hours ago
ob: KAUS 182053Z 35018G28KT 10SM SCT049 SCT060 24/12 A2982 RMK AO2 PK WND 33032/1959 SLP090 60000 T02440122 50006
cycle: 21

Station Type Date Time Source
KAUS TAF 2019/04/18 19:57 UTC NOAA

TAF
AMD KAUS 181854Z 1819/1924 32015G25KT P6SM SCT025 BKN040
FM190200 31007KT P6SM SCT120
FM191500 34010G20KT P6SM SCT035

Example: see airport list